createdAt,value
2022-11-30T00:01:17.655Z,7.82
2022-11-30T00:03:44.461Z,7.61
2022-11-30T00:06:13.631Z,7.80
2022-11-30T00:08:40.170Z,7.57
2022-11-30T00:11:15.256Z,7.52
2022-11-30T00:13:42.132Z,8.05
2022-11-30T00:16:08.925Z,7.23
2022-11-30T00:18:36.347Z,7.48
2022-11-30T00:21:04.871Z,8.16
2022-11-30T00:23:35.224Z,8.16
2022-11-30T00:26:06.652Z,8.10
2022-11-30T00:28:34.277Z,7.61
2022-11-30T00:31:02.695Z,7.85
2022-11-30T00:33:29.644Z,8.01
2022-11-30T00:36:00.612Z,7.83
2022-11-30T00:38:27.218Z,7.98
2022-11-30T00:40:53.826Z,7.41
2022-11-30T00:43:20.532Z,7.82
2022-11-30T00:45:47.050Z,7.84
2022-11-30T00:48:13.535Z,7.91
2022-11-30T00:50:40.099Z,8.14
2022-11-30T00:53:06.582Z,7.75
2022-11-30T00:55:33.439Z,7.13
2022-11-30T00:58:00.642Z,7.63
2022-11-30T01:00:27.818Z,8.02
2022-11-30T01:02:55.117Z,8.03
2022-11-30T01:05:21.658Z,7.93
2022-11-30T01:07:48.146Z,7.97
2022-11-30T01:10:14.746Z,7.81
2022-11-30T01:12:41.226Z,7.93
2022-11-30T01:15:08.187Z,7.80
2022-11-30T01:17:34.680Z,7.89
2022-11-30T01:20:01.125Z,7.94
2022-11-30T01:22:27.624Z,8.11
2022-11-30T01:24:54.035Z,8.30
2022-11-30T01:27:20.496Z,8.29
2022-11-30T01:29:46.948Z,8.27
2022-11-30T01:32:13.390Z,8.27
2022-11-30T01:34:39.841Z,7.91
2022-11-30T01:37:06.335Z,8.20
2022-11-30T01:39:32.764Z,7.49
2022-11-30T01:41:59.235Z,7.93
2022-11-30T01:44:28.572Z,8.06
2022-11-30T01:46:58.880Z,7.95
2022-11-30T01:50:00.791Z,7.66
2022-11-30T01:52:29.711Z,8.03
2022-11-30T01:55:19.462Z,7.51
2022-11-30T01:57:50.582Z,7.53
2022-11-30T02:00:17.384Z,7.30
2022-11-30T02:02:46.900Z,7.97
2022-11-30T02:05:14.599Z,7.64
2022-11-30T02:07:41.438Z,7.66
2022-11-30T02:10:12.732Z,7.58
2022-11-30T02:13:08.391Z,7.88
2022-11-30T02:15:58.130Z,7.94
2022-11-30T02:18:33.215Z,8.05
2022-11-30T02:21:04.998Z,8.16
2022-11-30T02:24:02.566Z,8.23
2022-11-30T02:27:10.856Z,7.90
2022-11-30T02:29:55.212Z,7.89
2022-11-30T02:32:27.940Z,7.85
2022-11-30T02:34:56.842Z,8.41
2022-11-30T02:37:24.924Z,8.05
2022-11-30T02:39:51.360Z,8.09
2022-11-30T02:42:18.086Z,8.11
2022-11-30T02:44:47.764Z,8.10
2022-11-30T02:47:20.402Z,7.95
2022-11-30T02:49:55.733Z,7.71
2022-11-30T02:52:24.539Z,7.84
2022-11-30T02:54:50.999Z,7.82
2022-11-30T02:57:17.474Z,7.76
2022-11-30T02:59:43.980Z,7.95
2022-11-30T03:02:10.462Z,7.92
2022-11-30T03:04:36.914Z,7.69
2022-11-30T03:07:03.542Z,8.14
2022-11-30T03:09:30.026Z,8.19
2022-11-30T03:11:56.459Z,8.31
2022-11-30T03:14:22.912Z,7.90
2022-11-30T03:16:49.407Z,7.85
2022-11-30T03:19:15.854Z,8.08
2022-11-30T03:21:42.296Z,8.15
2022-11-30T03:24:08.789Z,8.07
2022-11-30T03:26:35.271Z,8.40
2022-11-30T03:29:01.808Z,7.49
2022-11-30T03:31:28.298Z,7.58
2022-11-30T03:33:54.766Z,8.09
2022-11-30T03:36:21.213Z,7.97
2022-11-30T03:38:47.923Z,8.05
2022-11-30T03:41:16.609Z,7.73
2022-11-30T03:43:43.879Z,7.52
2022-11-30T03:46:10.679Z,7.10
2022-11-30T03:48:37.220Z,7.35
2022-11-30T03:51:04.660Z,7.45
2022-11-30T03:53:31.486Z,7.38
2022-11-30T03:56:00.107Z,7.77
2022-11-30T03:58:26.813Z,7.63
2022-11-30T04:01:08.551Z,7.04
2022-11-30T04:03:35.496Z,7.53
2022-11-30T04:06:02.787Z,7.24
2022-11-30T04:08:30.104Z,7.19
2022-11-30T04:10:57.903Z,7.89
2022-11-30T04:13:24.947Z,7.06
2022-11-30T04:15:52.863Z,7.45
2022-11-30T04:18:20.924Z,7.60
2022-11-30T04:20:47.562Z,7.67
2022-11-30T04:23:14.020Z,7.02
2022-11-30T04:25:41.219Z,7.38
2022-11-30T04:28:08.628Z,7.66
2022-11-30T04:30:35.927Z,8.12
2022-11-30T04:33:02.870Z,7.82
2022-11-30T04:35:29.412Z,7.96
2022-11-30T04:37:55.844Z,7.69
2022-11-30T04:40:22.456Z,8.08
2022-11-30T04:42:48.878Z,7.51
2022-11-30T04:45:15.466Z,7.83
2022-11-30T04:47:42.011Z,7.99
2022-11-30T04:50:08.971Z,7.77
2022-11-30T04:52:35.667Z,7.58
2022-11-30T04:55:04.359Z,7.39
2022-11-30T04:57:31.535Z,7.95
2022-11-30T04:59:58.016Z,7.60
2022-11-30T05:02:24.461Z,7.66
2022-11-30T05:04:51.231Z,7.47
2022-11-30T05:07:17.892Z,8.13
2022-11-30T05:09:44.430Z,7.76
2022-11-30T05:12:10.856Z,7.62
2022-11-30T05:14:37.336Z,7.60
2022-11-30T05:17:03.868Z,7.77
2022-11-30T05:19:30.316Z,7.60
2022-11-30T05:21:56.756Z,7.94
2022-11-30T05:24:23.258Z,7.81
2022-11-30T05:26:49.684Z,8.35
2022-11-30T05:29:16.137Z,8.47
2022-11-30T05:31:42.584Z,8.19
2022-11-30T05:34:09.167Z,7.94
2022-11-30T05:36:35.591Z,8.15
2022-11-30T05:39:02.149Z,7.76
2022-11-30T05:41:28.628Z,7.43
2022-11-30T05:43:55.182Z,7.54
2022-11-30T05:46:21.718Z,7.42
2022-11-30T05:48:48.214Z,8.02
2022-11-30T05:51:16.807Z,8.02
2022-11-30T05:53:44.643Z,8.13
2022-11-30T05:56:15.553Z,7.89
2022-11-30T05:58:42.206Z,8.11
2022-11-30T06:01:08.800Z,7.55
2022-11-30T06:03:35.876Z,7.62
2022-11-30T06:06:02.361Z,8.06
2022-11-30T06:08:28.900Z,7.37
2022-11-30T06:11:00.318Z,7.95
2022-11-30T06:13:28.979Z,8.03
2022-11-30T06:15:59.423Z,7.29
2022-11-30T06:18:26.012Z,7.37
2022-11-30T06:20:52.471Z,7.80
2022-11-30T06:23:18.903Z,7.68
2022-11-30T06:25:45.379Z,7.73
2022-11-30T06:28:12.076Z,7.72
2022-11-30T06:30:38.785Z,7.68
2022-11-30T06:33:05.263Z,7.86
2022-11-30T06:35:31.783Z,8.02
2022-11-30T06:38:00.442Z,8.13
2022-11-30T06:40:28.272Z,7.47
2022-11-30T06:42:54.948Z,7.92
2022-11-30T06:45:21.425Z,7.70
2022-11-30T06:47:47.927Z,7.75
2022-11-30T06:50:15.159Z,8.02
2022-11-30T06:52:41.595Z,7.74
2022-11-30T06:55:08.414Z,7.95
2022-11-30T06:57:35.002Z,7.25
2022-11-30T07:00:01.549Z,7.94
2022-11-30T07:02:27.981Z,7.61
2022-11-30T07:04:54.452Z,8.28
2022-11-30T07:07:21.357Z,8.04
2022-11-30T07:09:47.908Z,7.79
2022-11-30T07:12:14.376Z,7.33
2022-11-30T07:14:40.847Z,7.32
2022-11-30T07:17:07.291Z,7.78
2022-11-30T07:19:37.222Z,7.06
2022-11-30T07:22:03.806Z,7.34
2022-11-30T07:24:49.194Z,7.41
2022-11-30T07:27:15.835Z,7.87
2022-11-30T07:29:42.310Z,7.85
2022-11-30T07:32:08.802Z,7.55
2022-11-30T07:34:35.307Z,7.76
2022-11-30T07:37:01.770Z,7.62
2022-11-30T07:39:28.223Z,7.66
2022-11-30T07:41:54.715Z,8.25
2022-11-30T07:44:21.181Z,8.26
2022-11-30T07:46:47.636Z,7.79
2022-11-30T07:49:14.100Z,8.32
2022-11-30T07:51:40.619Z,8.26
2022-11-30T07:54:07.045Z,8.54
2022-11-30T07:56:33.547Z,8.07
2022-11-30T07:59:01.376Z,8.12
2022-11-30T08:01:31.136Z,8.29
2022-11-30T08:03:58.391Z,7.81
2022-11-30T08:06:29.823Z,7.88
2022-11-30T08:09:02.355Z,7.87
2022-11-30T08:11:30.779Z,7.76
2022-11-30T08:13:57.423Z,7.91
2022-11-30T08:16:26.346Z,8.03
2022-11-30T08:18:53.142Z,8.50
2022-11-30T08:21:20.983Z,8.37
2022-11-30T08:23:49.591Z,7.93
2022-11-30T08:26:18.472Z,7.29
2022-11-30T08:28:46.375Z,8.25
2022-11-30T08:31:25.432Z,8.11
2022-11-30T08:34:11.781Z,7.76
2022-11-30T08:36:38.813Z,8.00
2022-11-30T08:39:06.411Z,8.50
2022-11-30T08:41:34.900Z,8.19
2022-11-30T08:44:01.965Z,8.16
2022-11-30T08:46:50.459Z,8.09
2022-11-30T08:49:23.919Z,7.78
2022-11-30T08:54:42.815Z,8.03
2022-11-30T08:57:09.639Z,8.42
2022-11-30T08:59:36.112Z,8.01
2022-11-30T09:02:02.691Z,8.06
2022-11-30T09:04:29.142Z,7.88
2022-11-30T09:06:59.168Z,7.49
2022-11-30T09:09:25.940Z,7.38
2022-11-30T09:11:52.503Z,7.84
2022-11-30T09:14:18.994Z,8.25
2022-11-30T09:16:45.448Z,7.90
2022-11-30T09:19:11.967Z,8.39
2022-11-30T09:21:38.659Z,8.27
2022-11-30T09:24:05.290Z,7.89
2022-11-30T09:26:31.748Z,7.81
2022-11-30T09:28:58.177Z,8.07
2022-11-30T09:31:26.431Z,8.48
2022-11-30T09:33:54.954Z,7.83
2022-11-30T09:36:22.247Z,8.55
2022-11-30T09:38:48.876Z,8.11
2022-11-30T09:41:18.363Z,7.98
2022-11-30T09:43:57.027Z,8.07
2022-11-30T09:46:27.934Z,7.61
2022-11-30T09:49:07.778Z,7.71
2022-11-30T09:51:40.049Z,8.31
2022-11-30T09:54:12.123Z,8.55
2022-11-30T09:56:40.546Z,8.43
2022-11-30T09:59:14.901Z,7.58
2022-11-30T10:01:46.136Z,7.98
2022-11-30T10:04:24.065Z,7.64
2022-11-30T10:07:00.865Z,7.65
2022-11-30T10:09:33.543Z,8.22
2022-11-30T10:12:02.678Z,8.25
2022-11-30T10:14:50.663Z,8.32
2022-11-30T10:17:47.657Z,7.89
2022-11-30T10:20:18.958Z,7.98
2022-11-30T10:23:04.262Z,7.70
2022-11-30T10:25:40.840Z,7.89
2022-11-30T10:28:45.680Z,8.20
2022-11-30T10:31:10.676Z,7.71
2022-11-30T10:33:50.527Z,8.06
2022-11-30T10:36:33.061Z,8.27
2022-11-30T10:39:01.325Z,7.79
2022-11-30T10:41:44.371Z,7.60
2022-11-30T10:44:26.099Z,7.62
2022-11-30T10:47:00.577Z,7.76
2022-11-30T10:49:29.524Z,8.57
2022-11-30T10:52:01.514Z,7.70
2022-11-30T10:54:30.276Z,8.39
2022-11-30T10:56:59.557Z,8.38
2022-11-30T10:59:48.249Z,8.82
2022-11-30T11:02:36.843Z,7.91
2022-11-30T11:05:25.799Z,8.28
2022-11-30T11:08:06.751Z,8.26
2022-11-30T11:10:44.812Z,8.53
2022-11-30T11:13:35.507Z,8.23
2022-11-30T11:16:03.735Z,8.58
2022-11-30T11:18:32.339Z,8.12
2022-11-30T11:21:06.216Z,8.31
2022-11-30T11:23:39.007Z,7.89
2022-11-30T11:26:17.925Z,8.43
2022-11-30T11:28:46.519Z,8.18
2022-11-30T11:31:44.097Z,8.39
2022-11-30T11:34:25.743Z,7.63
2022-11-30T11:37:06.794Z,8.06
2022-11-30T11:39:33.407Z,8.29
2022-11-30T11:42:00.458Z,8.06
2022-11-30T11:44:28.084Z,7.75
2022-11-30T11:47:02.635Z,8.06
2022-11-30T11:49:35.106Z,7.93
2022-11-30T11:52:13.778Z,8.20
2022-11-30T11:54:41.584Z,8.89
2022-11-30T11:57:13.550Z,7.97
2022-11-30T11:59:46.172Z,7.77
2022-11-30T12:02:18.883Z,8.00
2022-11-30T12:04:51.323Z,8.19
2022-11-30T12:07:46.901Z,8.20
2022-11-30T12:13:32.927Z,8.02
2022-11-30T12:16:05.388Z,8.48
2022-11-30T12:18:45.355Z,7.87
2022-11-30T12:21:16.609Z,8.06
2022-11-30T12:23:49.161Z,8.12
2022-11-30T12:26:38.505Z,8.32
2022-11-30T12:29:24.332Z,8.18
2022-11-30T12:31:57.148Z,7.95
2022-11-30T12:34:54.887Z,8.45
2022-11-30T12:37:36.326Z,8.77
2022-11-30T12:40:13.402Z,7.96
2022-11-30T12:42:55.228Z,8.65
2022-11-30T12:45:36.154Z,8.53
2022-11-30T12:48:14.052Z,8.77
2022-11-30T12:51:33.006Z,8.19
2022-11-30T12:54:05.654Z,8.48
2022-11-30T12:56:42.888Z,8.01
2022-11-30T12:59:23.864Z,8.00
2022-11-30T13:02:17.850Z,7.70
2022-11-30T13:05:00.580Z,7.65
2022-11-30T13:07:44.868Z,7.66
2022-11-30T13:10:52.977Z,8.02
2022-11-30T13:13:25.684Z,8.18
2022-11-30T13:15:52.288Z,8.26
2022-11-30T13:18:20.606Z,7.74
2022-11-30T13:20:51.747Z,8.17
2022-11-30T13:23:42.534Z,7.82
2022-11-30T13:26:35.932Z,8.36
2022-11-30T13:29:14.896Z,8.07
2022-11-30T13:31:47.523Z,8.11
2022-11-30T13:34:28.802Z,7.47
2022-11-30T13:37:06.683Z,8.14
2022-11-30T13:39:56.373Z,7.80
2022-11-30T13:42:34.406Z,8.44
2022-11-30T13:45:13.153Z,8.30
2022-11-30T13:47:40.821Z,7.96
2022-11-30T13:50:08.422Z,8.51
2022-11-30T13:53:03.350Z,7.83
2022-11-30T13:55:35.882Z,8.11
2022-11-30T13:58:05.809Z,7.60
2022-11-30T14:00:32.302Z,8.21
2022-11-30T14:03:22.749Z,8.07
2022-11-30T14:05:53.687Z,7.67
2022-11-30T14:08:23.206Z,7.81
2022-11-30T14:11:35.938Z,8.09
2022-11-30T14:14:44.882Z,8.16
2022-11-30T14:17:18.532Z,8.14
2022-11-30T14:19:47.298Z,8.13
2022-11-30T14:22:14.875Z,7.72
2022-11-30T14:24:44.379Z,7.59
2022-11-30T14:27:23.612Z,7.47
2022-11-30T14:29:53.412Z,7.73
2022-11-30T14:32:43.515Z,7.71
2022-11-30T14:35:16.045Z,7.31
2022-11-30T14:37:54.168Z,8.04
2022-11-30T14:40:23.521Z,7.80
2022-11-30T14:42:52.732Z,7.64
2022-11-30T14:45:22.103Z,8.36
2022-11-30T14:47:52.788Z,8.27
2022-11-30T14:50:25.601Z,7.64
2022-11-30T14:53:04.983Z,7.66
2022-11-30T14:55:40.808Z,8.15
2022-11-30T14:58:17.222Z,8.20
2022-11-30T15:00:45.060Z,8.35
2022-11-30T15:03:20.735Z,8.03
2022-11-30T15:05:50.722Z,7.95
2022-11-30T15:08:17.482Z,8.01
2022-11-30T15:10:44.127Z,8.35
2022-11-30T15:13:15.668Z,8.19
2022-11-30T15:15:53.987Z,7.77
2022-11-30T15:18:23.913Z,7.91
2022-11-30T15:21:02.266Z,8.08
2022-11-30T15:23:28.768Z,7.92
2022-11-30T15:26:11.958Z,8.21
2022-11-30T15:28:41.576Z,8.65
2022-11-30T15:31:10.867Z,7.83
2022-11-30T15:33:41.908Z,8.36
2022-11-30T15:36:33.162Z,8.13
2022-11-30T15:38:55.268Z,8.01
2022-11-30T15:41:24.121Z,8.33
2022-11-30T15:43:55.630Z,8.42
2022-11-30T15:46:55.967Z,8.30
2022-11-30T15:49:25.226Z,8.35
2022-11-30T15:51:59.310Z,8.08
2022-11-30T15:54:44.488Z,8.49
2022-11-30T15:57:11.518Z,8.70
2022-11-30T15:59:38.124Z,8.69
2022-11-30T16:02:08.333Z,8.34
2022-11-30T16:04:56.885Z,8.29
2022-11-30T16:07:37.875Z,8.45
2022-11-30T16:10:38.117Z,7.76
2022-11-30T16:13:05.286Z,8.57
2022-11-30T16:15:36.334Z,8.68
2022-11-30T16:18:18.970Z,8.96
2022-11-30T16:20:48.260Z,8.99
2022-11-30T16:23:15.621Z,9.09
2022-11-30T16:25:43.237Z,9.05
2022-11-30T16:28:14.987Z,9.24
2022-11-30T16:30:41.939Z,8.86
2022-11-30T16:33:23.043Z,8.91
2022-11-30T16:35:56.482Z,8.73
2022-11-30T16:38:24.208Z,8.59
2022-11-30T16:40:52.058Z,8.72
2022-11-30T16:43:18.656Z,8.35
2022-11-30T16:45:46.769Z,8.48
2022-11-30T16:48:14.359Z,8.69
2022-11-30T16:50:41.410Z,8.87
2022-11-30T16:53:11.720Z,8.33
2022-11-30T16:55:38.513Z,8.93
2022-11-30T16:58:05.260Z,9.01
2022-11-30T17:00:31.874Z,8.95
2022-11-30T17:03:02.938Z,8.63
2022-11-30T17:05:29.404Z,8.89
2022-11-30T17:07:56.031Z,8.91
2022-11-30T17:10:22.629Z,9.02
2022-11-30T17:12:49.211Z,8.30
2022-11-30T17:15:20.430Z,7.97
2022-11-30T17:17:46.903Z,8.43
2022-11-30T17:20:14.537Z,8.13
2022-11-30T17:22:42.194Z,8.39
2022-11-30T17:25:14.386Z,8.68
2022-11-30T17:27:41.340Z,8.56
2022-11-30T17:30:08.414Z,8.39
2022-11-30T17:32:35.008Z,8.30
2022-11-30T17:35:01.499Z,7.73
2022-11-30T17:37:28.509Z,7.88
2022-11-30T17:39:54.965Z,7.88
2022-11-30T17:42:22.271Z,8.55
2022-11-30T17:44:49.573Z,8.27
2022-11-30T17:47:16.310Z,8.03
2022-11-30T17:49:43.076Z,8.24
2022-11-30T17:52:09.752Z,8.25
2022-11-30T17:54:36.405Z,8.61
2022-11-30T17:57:04.492Z,8.41
2022-11-30T17:59:30.939Z,8.20
2022-11-30T18:01:57.571Z,8.42
2022-11-30T18:04:24.558Z,8.56
2022-11-30T18:06:51.059Z,8.41
2022-11-30T18:09:17.496Z,8.24
2022-11-30T18:11:43.942Z,8.41
2022-11-30T18:14:10.395Z,8.03
2022-11-30T18:16:37.598Z,8.34
2022-11-30T18:19:11.907Z,8.70
2022-11-30T18:21:40.259Z,8.39
2022-11-30T18:24:07.347Z,8.62
2022-11-30T18:26:37.155Z,8.35
2022-11-30T18:29:03.954Z,8.06
2022-11-30T18:31:30.932Z,8.46
2022-11-30T18:33:58.835Z,8.43
2022-11-30T18:36:25.874Z,8.55
2022-11-30T18:38:52.439Z,8.77
2022-11-30T18:41:18.912Z,8.83
2022-11-30T18:43:45.516Z,8.89
2022-11-30T18:46:13.134Z,8.60
2022-11-30T18:48:41.884Z,8.63
2022-11-30T18:51:11.593Z,8.60
2022-11-30T18:53:38.036Z,8.90
2022-11-30T18:56:13.252Z,8.50
2022-11-30T18:58:41.400Z,8.41
2022-11-30T19:01:20.463Z,8.65
2022-11-30T19:03:54.557Z,8.34
2022-11-30T19:06:21.109Z,8.82
2022-11-30T19:08:48.181Z,8.82
2022-11-30T19:11:15.420Z,8.80
2022-11-30T19:13:42.347Z,9.00
2022-11-30T19:16:11.931Z,8.28
2022-11-30T19:18:38.494Z,8.48
2022-11-30T19:21:09.627Z,8.45
2022-11-30T19:23:37.219Z,8.57
2022-11-30T19:26:04.992Z,8.59
2022-11-30T19:28:33.250Z,8.40
2022-11-30T19:31:00.164Z,8.39
2022-11-30T19:33:27.706Z,8.70
2022-11-30T19:36:00.082Z,8.44
2022-11-30T19:38:26.528Z,8.39
2022-11-30T19:40:52.989Z,8.58
2022-11-30T19:43:19.430Z,8.46
2022-11-30T19:45:45.911Z,8.69
2022-11-30T19:48:12.390Z,8.35
2022-11-30T19:50:38.857Z,8.41
2022-11-30T19:53:05.760Z,8.45
2022-11-30T19:55:32.744Z,8.42
2022-11-30T19:57:59.210Z,8.57
2022-11-30T20:00:25.811Z,8.34
2022-11-30T20:02:52.415Z,8.22
2022-11-30T20:05:18.919Z,8.35
2022-11-30T20:07:45.473Z,8.47
2022-11-30T20:10:15.431Z,8.38
2022-11-30T20:12:41.916Z,8.24
2022-11-30T20:15:09.172Z,8.57
2022-11-30T20:17:35.671Z,8.73
2022-11-30T20:20:02.325Z,8.63
2022-11-30T20:22:29.245Z,8.30
2022-11-30T20:24:56.615Z,8.65
2022-11-30T20:27:25.057Z,8.59
2022-11-30T20:29:52.291Z,8.65
2022-11-30T20:32:19.462Z,8.53
2022-11-30T20:34:46.302Z,8.53
2022-11-30T20:37:13.567Z,8.54
2022-11-30T20:39:45.714Z,8.61
2022-11-30T20:42:12.644Z,8.79
2022-11-30T20:44:39.071Z,7.93
2022-11-30T20:47:05.535Z,8.32
2022-11-30T20:49:32.030Z,8.42
2022-11-30T20:51:58.561Z,8.27
2022-11-30T20:54:25.122Z,8.06
2022-11-30T20:56:51.719Z,7.97
2022-11-30T20:59:23.715Z,8.26
2022-11-30T21:01:50.508Z,8.43
2022-11-30T21:04:17.025Z,8.31
2022-11-30T21:06:45.664Z,8.61
2022-11-30T21:09:16.948Z,8.43
2022-11-30T21:11:43.795Z,8.59
2022-11-30T21:14:10.615Z,8.20
2022-11-30T21:16:37.268Z,8.36
2022-11-30T21:19:04.077Z,8.22
2022-11-30T21:21:33.700Z,8.33
2022-11-30T21:24:02.302Z,7.89
2022-11-30T21:26:34.330Z,8.23
2022-11-30T21:29:06.951Z,8.33
2022-11-30T21:31:33.902Z,8.25
2022-11-30T21:34:00.535Z,8.16
2022-11-30T21:36:27.560Z,8.19
2022-11-30T21:39:02.617Z,7.61
2022-11-30T21:41:30.830Z,8.01
2022-11-30T21:43:57.344Z,8.23
2022-11-30T21:46:24.064Z,8.36
2022-11-30T21:48:51.134Z,8.48
2022-11-30T21:51:20.742Z,8.31
2022-11-30T21:53:49.744Z,8.39
2022-11-30T21:56:19.192Z,8.04
2022-11-30T21:58:47.035Z,8.39
2022-11-30T22:01:15.735Z,8.20
2022-11-30T22:03:42.544Z,8.23
2022-11-30T22:06:11.500Z,7.81
2022-11-30T22:08:38.087Z,8.11
2022-11-30T22:11:07.243Z,8.24
2022-11-30T22:13:34.304Z,8.14
2022-11-30T22:16:06.880Z,7.90
2022-11-30T22:18:33.614Z,7.83
2022-11-30T22:21:10.715Z,8.04
2022-11-30T22:23:39.192Z,8.18
2022-11-30T22:26:16.124Z,7.79
2022-11-30T22:28:44.468Z,7.68
2022-11-30T22:31:12.923Z,7.75
2022-11-30T22:33:40.983Z,8.06
2022-11-30T22:36:08.751Z,8.29
2022-11-30T22:38:35.280Z,8.32
2022-11-30T22:41:06.985Z,7.97
2022-11-30T22:43:33.862Z,8.39
2022-11-30T22:46:08.430Z,8.19
2022-11-30T22:48:35.182Z,7.61
2022-11-30T22:51:12.127Z,8.26
2022-11-30T22:53:39.419Z,8.12
2022-11-30T22:56:11.910Z,8.16
2022-11-30T22:58:39.153Z,8.09
2022-11-30T23:01:10.591Z,7.65
2022-11-30T23:03:37.360Z,8.05
2022-11-30T23:06:04.008Z,7.95
2022-11-30T23:08:31.342Z,7.52
2022-11-30T23:11:02.910Z,7.86
2022-11-30T23:13:29.824Z,7.46
2022-11-30T23:15:59.960Z,7.93
2022-11-30T23:18:27.923Z,8.13
2022-11-30T23:20:55.518Z,8.08
2022-11-30T23:23:23.067Z,8.12
2022-11-30T23:25:50.035Z,7.88
2022-11-30T23:28:17.259Z,7.93
2022-11-30T23:30:43.752Z,8.12
2022-11-30T23:33:10.490Z,7.75
2022-11-30T23:35:38.333Z,7.57
2022-11-30T23:38:04.788Z,8.00
2022-11-30T23:40:31.676Z,8.09
2022-11-30T23:42:58.148Z,8.27
2022-11-30T23:45:24.604Z,8.17
2022-11-30T23:47:51.052Z,7.89
2022-11-30T23:50:17.507Z,8.04
2022-11-30T23:52:43.996Z,7.92
2022-11-30T23:55:10.459Z,7.84
2022-11-30T23:57:36.899Z,7.68
